sensor_id;sensor_type;location;lat;lon;timestamp;P1;durP1;ratioP1;P2;durP2;ratioP2
17414;SDS011;8825;48.086;16.426;2023-02-28T00:01:12;9.93;;;8.08;;
17414;SDS011;8825;48.086;16.426;2023-02-28T00:03:41;11.05;;;7.90;;
17414;SDS011;8825;48.086;16.426;2023-02-28T00:06:09;9.25;;;7.92;;
17414;SDS011;8825;48.086;16.426;2023-02-28T00:08:37;11.20;;;8.35;;
17414;SDS011;8825;48.086;16.426;2023-02-28T00:11:07;8.90;;;7.55;;
17414;SDS011;8825;48.086;16.426;2023-02-28T00:13:36;10.48;;;8.50;;
17414;SDS011;8825;48.086;16.426;2023-02-28T00:16:07;8.80;;;7.40;;
17414;SDS011;8825;48.086;16.426;2023-02-28T00:18:36;9.50;;;8.38;;
17414;SDS011;8825;48.086;16.426;2023-02-28T00:21:05;10.05;;;8.80;;
17414;SDS011;8825;48.086;16.426;2023-02-28T00:23:33;12.75;;;8.93;;
17414;SDS011;8825;48.086;16.426;2023-02-28T00:26:01;12.03;;;8.48;;
17414;SDS011;8825;48.086;16.426;2023-02-28T00:28:29;10.53;;;8.35;;
17414;SDS011;8825;48.086;16.426;2023-02-28T00:30:57;11.68;;;8.98;;
17414;SDS011;8825;48.086;16.426;2023-02-28T00:33:26;11.85;;;7.87;;
17414;SDS011;8825;48.086;16.426;2023-02-28T00:36:04;10.93;;;8.93;;
17414;SDS011;8825;48.086;16.426;2023-02-28T00:38:33;9.88;;;8.35;;
17414;SDS011;8825;48.086;16.426;2023-02-28T00:41:01;9.18;;;8.18;;
17414;SDS011;8825;48.086;16.426;2023-02-28T00:43:33;8.83;;;7.55;;
17414;SDS011;8825;48.086;16.426;2023-02-28T00:46:02;9.50;;;8.20;;
17414;SDS011;8825;48.086;16.426;2023-02-28T00:48:30;10.05;;;8.20;;
17414;SDS011;8825;48.086;16.426;2023-02-28T00:50:58;9.90;;;8.58;;
17414;SDS011;8825;48.086;16.426;2023-02-28T00:53:26;10.93;;;8.70;;
17414;SDS011;8825;48.086;16.426;2023-02-28T00:55:54;8.85;;;7.95;;
17414;SDS011;8825;48.086;16.426;2023-02-28T00:58:21;10.00;;;8.33;;
17414;SDS011;8825;48.086;16.426;2023-02-28T01:00:50;9.95;;;8.50;;
17414;SDS011;8825;48.086;16.426;2023-02-28T01:03:18;9.95;;;8.95;;
17414;SDS011;8825;48.086;16.426;2023-02-28T01:05:46;10.98;;;8.18;;
17414;SDS011;8825;48.086;16.426;2023-02-28T01:08:14;9.50;;;8.50;;
17414;SDS011;8825;48.086;16.426;2023-02-28T01:10:42;12.05;;;8.60;;
17414;SDS011;8825;48.086;16.426;2023-02-28T01:13:10;11.57;;;8.78;;
17414;SDS011;8825;48.086;16.426;2023-02-28T01:15:38;10.08;;;8.05;;
17414;SDS011;8825;48.086;16.426;2023-02-28T01:18:08;8.50;;;7.45;;
17414;SDS011;8825;48.086;16.426;2023-02-28T01:20:36;9.88;;;8.35;;
17414;SDS011;8825;48.086;16.426;2023-02-28T01:23:04;9.30;;;8.13;;
17414;SDS011;8825;48.086;16.426;2023-02-28T01:25:34;9.80;;;8.68;;
17414;SDS011;8825;48.086;16.426;2023-02-28T01:28:02;11.75;;;9.20;;
17414;SDS011;8825;48.086;16.426;2023-02-28T01:30:30;11.88;;;8.78;;
17414;SDS011;8825;48.086;16.426;2023-02-28T01:32:58;12.55;;;8.35;;
17414;SDS011;8825;48.086;16.426;2023-02-28T01:35:26;9.28;;;8.15;;
17414;SDS011;8825;48.086;16.426;2023-02-28T01:37:53;10.53;;;7.62;;
17414;SDS011;8825;48.086;16.426;2023-02-28T01:40:21;13.05;;;8.88;;
17414;SDS011;8825;48.086;16.426;2023-02-28T01:42:49;10.13;;;8.45;;
17414;SDS011;8825;48.086;16.426;2023-02-28T01:45:18;10.25;;;8.60;;
17414;SDS011;8825;48.086;16.426;2023-02-28T01:47:47;8.83;;;7.67;;
17414;SDS011;8825;48.086;16.426;2023-02-28T01:50:21;10.40;;;8.80;;
17414;SDS011;8825;48.086;16.426;2023-02-28T01:52:51;9.80;;;8.50;;
17414;SDS011;8825;48.086;16.426;2023-02-28T01:55:21;10.65;;;8.45;;
17414;SDS011;8825;48.086;16.426;2023-02-28T01:57:52;10.25;;;8.30;;
17414;SDS011;8825;48.086;16.426;2023-02-28T02:00:23;12.45;;;9.25;;
17414;SDS011;8825;48.086;16.426;2023-02-28T02:02:54;10.70;;;9.05;;
17414;SDS011;8825;48.086;16.426;2023-02-28T02:05:27;10.53;;;8.93;;
17414;SDS011;8825;48.086;16.426;2023-02-28T02:08:02;11.53;;;9.03;;
17414;SDS011;8825;48.086;16.426;2023-02-28T02:16:11;11.95;;;9.08;;
17414;SDS011;8825;48.086;16.426;2023-02-28T02:18:48;10.78;;;8.90;;
17414;SDS011;8825;48.086;16.426;2023-02-28T02:21:38;10.70;;;8.78;;
17414;SDS011;8825;48.086;16.426;2023-02-28T02:26:55;10.93;;;9.38;;
17414;SDS011;8825;48.086;16.426;2023-02-28T02:35:53;12.80;;;9.20;;
17414;SDS011;8825;48.086;16.426;2023-02-28T02:38:23;11.18;;;9.83;;
17414;SDS011;8825;48.086;16.426;2023-02-28T02:40:59;11.90;;;9.45;;
17414;SDS011;8825;48.086;16.426;2023-02-28T02:43:32;10.25;;;8.48;;
17414;SDS011;8825;48.086;16.426;2023-02-28T02:46:06;10.15;;;9.05;;
17414;SDS011;8825;48.086;16.426;2023-02-28T02:48:32;11.30;;;9.35;;
17414;SDS011;8825;48.086;16.426;2023-02-28T02:51:03;11.20;;;9.10;;
17414;SDS011;8825;48.086;16.426;2023-02-28T02:53:34;13.13;;;10.10;;
17414;SDS011;8825;48.086;16.426;2023-02-28T02:56:04;11.35;;;9.45;;
17414;SDS011;8825;48.086;16.426;2023-02-28T02:58:35;10.50;;;9.33;;
17414;SDS011;8825;48.086;16.426;2023-02-28T03:01:06;13.78;;;9.30;;
17414;SDS011;8825;48.086;16.426;2023-02-28T03:03:35;10.10;;;9.00;;
17414;SDS011;8825;48.086;16.426;2023-02-28T03:06:04;10.65;;;9.20;;
17414;SDS011;8825;48.086;16.426;2023-02-28T03:08:35;11.53;;;9.90;;
17414;SDS011;8825;48.086;16.426;2023-02-28T03:11:06;12.58;;;9.68;;
17414;SDS011;8825;48.086;16.426;2023-02-28T03:19:13;10.30;;;8.53;;
17414;SDS011;8825;48.086;16.426;2023-02-28T03:24:45;10.08;;;8.78;;
17414;SDS011;8825;48.086;16.426;2023-02-28T03:27:20;10.90;;;8.73;;
17414;SDS011;8825;48.086;16.426;2023-02-28T03:32:38;10.45;;;8.93;;
17414;SDS011;8825;48.086;16.426;2023-02-28T03:37:38;10.13;;;8.83;;
17414;SDS011;8825;48.086;16.426;2023-02-28T03:40:10;10.25;;;8.75;;
17414;SDS011;8825;48.086;16.426;2023-02-28T03:42:39;9.68;;;8.68;;
17414;SDS011;8825;48.086;16.426;2023-02-28T03:47:51;11.78;;;9.45;;
17414;SDS011;8825;48.086;16.426;2023-02-28T03:50:24;10.65;;;8.93;;
17414;SDS011;8825;48.086;16.426;2023-02-28T03:52:55;11.85;;;10.20;;
17414;SDS011;8825;48.086;16.426;2023-02-28T03:55:25;12.85;;;9.85;;
17414;SDS011;8825;48.086;16.426;2023-02-28T03:58:01;12.18;;;10.38;;
17414;SDS011;8825;48.086;16.426;2023-02-28T04:00:43;11.78;;;9.70;;
17414;SDS011;8825;48.086;16.426;2023-02-28T04:03:11;11.08;;;9.15;;
17414;SDS011;8825;48.086;16.426;2023-02-28T04:05:46;11.80;;;9.80;;
17414;SDS011;8825;48.086;16.426;2023-02-28T04:08:16;11.55;;;8.88;;
17414;SDS011;8825;48.086;16.426;2023-02-28T04:10:43;11.12;;;9.55;;
17414;SDS011;8825;48.086;16.426;2023-02-28T04:13:14;10.63;;;9.18;;
17414;SDS011;8825;48.086;16.426;2023-02-28T04:15:41;13.45;;;10.23;;
17414;SDS011;8825;48.086;16.426;2023-02-28T04:18:09;12.47;;;10.23;;
17414;SDS011;8825;48.086;16.426;2023-02-28T04:20:36;12.03;;;9.73;;
17414;SDS011;8825;48.086;16.426;2023-02-28T04:23:04;12.13;;;10.45;;
17414;SDS011;8825;48.086;16.426;2023-02-28T04:25:31;12.88;;;11.22;;
17414;SDS011;8825;48.086;16.426;2023-02-28T04:27:59;12.63;;;10.65;;
17414;SDS011;8825;48.086;16.426;2023-02-28T04:30:26;11.43;;;9.93;;
17414;SDS011;8825;48.086;16.426;2023-02-28T04:32:55;11.73;;;10.03;;
17414;SDS011;8825;48.086;16.426;2023-02-28T04:35:22;12.80;;;9.63;;
17414;SDS011;8825;48.086;16.426;2023-02-28T04:37:50;13.53;;;9.88;;
17414;SDS011;8825;48.086;16.426;2023-02-28T04:40:17;13.65;;;10.43;;
17414;SDS011;8825;48.086;16.426;2023-02-28T04:42:45;11.95;;;9.63;;
17414;SDS011;8825;48.086;16.426;2023-02-28T04:45:12;14.33;;;10.95;;
17414;SDS011;8825;48.086;16.426;2023-02-28T04:47:40;12.30;;;9.65;;
17414;SDS011;8825;48.086;16.426;2023-02-28T04:50:08;13.28;;;9.75;;
17414;SDS011;8825;48.086;16.426;2023-02-28T04:52:36;13.28;;;10.15;;
17414;SDS011;8825;48.086;16.426;2023-02-28T04:55:03;11.95;;;9.60;;
17414;SDS011;8825;48.086;16.426;2023-02-28T04:57:32;11.25;;;9.88;;
17414;SDS011;8825;48.086;16.426;2023-02-28T04:59:59;12.07;;;9.85;;
17414;SDS011;8825;48.086;16.426;2023-02-28T05:02:27;12.03;;;10.00;;
17414;SDS011;8825;48.086;16.426;2023-02-28T05:04:54;13.08;;;11.03;;
17414;SDS011;8825;48.086;16.426;2023-02-28T05:07:21;11.83;;;9.68;;
17414;SDS011;8825;48.086;16.426;2023-02-28T05:09:49;13.70;;;10.00;;
17414;SDS011;8825;48.086;16.426;2023-02-28T05:12:17;11.88;;;10.28;;
17414;SDS011;8825;48.086;16.426;2023-02-28T05:14:44;11.85;;;10.38;;
17414;SDS011;8825;48.086;16.426;2023-02-28T05:17:12;10.45;;;9.35;;
17414;SDS011;8825;48.086;16.426;2023-02-28T05:19:39;11.57;;;9.88;;
17414;SDS011;8825;48.086;16.426;2023-02-28T05:22:11;13.18;;;9.65;;
17414;SDS011;8825;48.086;16.426;2023-02-28T05:24:41;12.18;;;10.30;;
17414;SDS011;8825;48.086;16.426;2023-02-28T05:27:08;18.12;;;12.82;;
17414;SDS011;8825;48.086;16.426;2023-02-28T05:29:36;16.32;;;12.60;;
17414;SDS011;8825;48.086;16.426;2023-02-28T05:32:05;16.00;;;12.15;;
17414;SDS011;8825;48.086;16.426;2023-02-28T05:34:33;13.80;;;10.98;;
17414;SDS011;8825;48.086;16.426;2023-02-28T05:37:01;14.90;;;11.63;;
17414;SDS011;8825;48.086;16.426;2023-02-28T05:39:28;14.53;;;11.25;;
17414;SDS011;8825;48.086;16.426;2023-02-28T05:41:56;17.50;;;12.98;;
17414;SDS011;8825;48.086;16.426;2023-02-28T05:44:23;18.30;;;13.00;;
17414;SDS011;8825;48.086;16.426;2023-02-28T05:46:51;15.63;;;12.98;;
17414;SDS011;8825;48.086;16.426;2023-02-28T05:49:18;16.62;;;13.03;;
17414;SDS011;8825;48.086;16.426;2023-02-28T05:51:46;15.45;;;11.75;;
17414;SDS011;8825;48.086;16.426;2023-02-28T05:54:13;15.80;;;12.00;;
17414;SDS011;8825;48.086;16.426;2023-02-28T05:56:41;14.75;;;11.83;;
17414;SDS011;8825;48.086;16.426;2023-02-28T05:59:10;15.15;;;12.20;;
17414;SDS011;8825;48.086;16.426;2023-02-28T06:01:44;18.23;;;14.13;;
17414;SDS011;8825;48.086;16.426;2023-02-28T06:04:16;17.55;;;13.45;;
17414;SDS011;8825;48.086;16.426;2023-02-28T06:06:50;17.35;;;12.65;;
17414;SDS011;8825;48.086;16.426;2023-02-28T06:09:15;17.02;;;13.62;;
17414;SDS011;8825;48.086;16.426;2023-02-28T06:11:43;15.20;;;12.63;;
17414;SDS011;8825;48.086;16.426;2023-02-28T06:14:17;16.57;;;12.50;;
17414;SDS011;8825;48.086;16.426;2023-02-28T06:16:46;17.42;;;14.33;;
17414;SDS011;8825;48.086;16.426;2023-02-28T06:19:13;15.68;;;13.05;;
17414;SDS011;8825;48.086;16.426;2023-02-28T06:21:41;17.67;;;13.15;;
17414;SDS011;8825;48.086;16.426;2023-02-28T06:24:10;17.07;;;12.82;;
17414;SDS011;8825;48.086;16.426;2023-02-28T06:26:37;13.55;;;11.88;;
17414;SDS011;8825;48.086;16.426;2023-02-28T06:29:05;15.32;;;11.75;;
17414;SDS011;8825;48.086;16.426;2023-02-28T06:31:33;15.13;;;11.80;;
17414;SDS011;8825;48.086;16.426;2023-02-28T06:34:00;15.03;;;12.45;;
17414;SDS011;8825;48.086;16.426;2023-02-28T06:36:28;16.45;;;12.60;;
17414;SDS011;8825;48.086;16.426;2023-02-28T06:38:56;18.87;;;12.68;;
17414;SDS011;8825;48.086;16.426;2023-02-28T06:41:24;15.93;;;12.30;;
17414;SDS011;8825;48.086;16.426;2023-02-28T06:43:52;16.55;;;13.45;;
17414;SDS011;8825;48.086;16.426;2023-02-28T06:46:20;14.47;;;12.20;;
17414;SDS011;8825;48.086;16.426;2023-02-28T06:48:47;15.65;;;12.88;;
17414;SDS011;8825;48.086;16.426;2023-02-28T06:51:16;13.55;;;11.53;;
17414;SDS011;8825;48.086;16.426;2023-02-28T06:53:50;15.15;;;12.98;;
17414;SDS011;8825;48.086;16.426;2023-02-28T06:56:18;16.35;;;12.37;;
17414;SDS011;8825;48.086;16.426;2023-02-28T06:58:47;17.32;;;13.88;;
17414;SDS011;8825;48.086;16.426;2023-02-28T07:01:15;16.85;;;12.30;;
17414;SDS011;8825;48.086;16.426;2023-02-28T07:03:43;14.65;;;12.47;;
17414;SDS011;8825;48.086;16.426;2023-02-28T07:06:10;13.65;;;11.88;;
17414;SDS011;8825;48.086;16.426;2023-02-28T07:08:38;14.50;;;11.95;;
17414;SDS011;8825;48.086;16.426;2023-02-28T07:11:06;14.25;;;11.60;;
17414;SDS011;8825;48.086;16.426;2023-02-28T07:13:34;15.98;;;12.20;;
17414;SDS011;8825;48.086;16.426;2023-02-28T07:16:06;17.40;;;13.88;;
17414;SDS011;8825;48.086;16.426;2023-02-28T07:18:36;17.50;;;13.45;;
17414;SDS011;8825;48.086;16.426;2023-02-28T07:21:05;16.67;;;13.70;;
17414;SDS011;8825;48.086;16.426;2023-02-28T07:23:35;14.90;;;13.30;;
17414;SDS011;8825;48.086;16.426;2023-02-28T07:26:05;14.43;;;12.93;;
17414;SDS011;8825;48.086;16.426;2023-02-28T07:28:35;14.95;;;12.47;;
17414;SDS011;8825;48.086;16.426;2023-02-28T07:31:04;15.93;;;13.15;;
17414;SDS011;8825;48.086;16.426;2023-02-28T07:33:33;15.30;;;13.70;;
17414;SDS011;8825;48.086;16.426;2023-02-28T07:36:06;16.48;;;12.78;;
17414;SDS011;8825;48.086;16.426;2023-02-28T07:38:33;14.25;;;12.10;;
17414;SDS011;8825;48.086;16.426;2023-02-28T07:41:01;14.33;;;12.82;;
17414;SDS011;8825;48.086;16.426;2023-02-28T07:43:30;17.45;;;14.35;;
17414;SDS011;8825;48.086;16.426;2023-02-28T07:46:05;13.55;;;12.13;;
17414;SDS011;8825;48.086;16.426;2023-02-28T07:48:35;17.40;;;14.43;;
17414;SDS011;8825;48.086;16.426;2023-02-28T07:51:02;14.10;;;12.25;;
17414;SDS011;8825;48.086;16.426;2023-02-28T07:53:30;13.22;;;11.83;;
17414;SDS011;8825;48.086;16.426;2023-02-28T07:55:59;14.20;;;12.80;;
17414;SDS011;8825;48.086;16.426;2023-02-28T07:58:28;14.10;;;12.55;;
17414;SDS011;8825;48.086;16.426;2023-02-28T08:00:57;14.05;;;12.43;;
17414;SDS011;8825;48.086;16.426;2023-02-28T08:03:26;13.53;;;12.05;;
17414;SDS011;8825;48.086;16.426;2023-02-28T08:05:53;15.10;;;12.85;;
17414;SDS011;8825;48.086;16.426;2023-02-28T08:08:21;12.78;;;11.35;;
17414;SDS011;8825;48.086;16.426;2023-02-28T08:10:49;15.05;;;12.78;;
17414;SDS011;8825;48.086;16.426;2023-02-28T08:13:16;14.65;;;12.07;;
17414;SDS011;8825;48.086;16.426;2023-02-28T08:15:44;15.65;;;12.53;;
17414;SDS011;8825;48.086;16.426;2023-02-28T08:18:13;16.05;;;12.80;;
17414;SDS011;8825;48.086;16.426;2023-02-28T08:20:40;14.87;;;13.28;;
17414;SDS011;8825;48.086;16.426;2023-02-28T08:23:08;14.65;;;12.58;;
17414;SDS011;8825;48.086;16.426;2023-02-28T08:25:35;13.43;;;11.90;;
17414;SDS011;8825;48.086;16.426;2023-02-28T08:28:03;14.50;;;13.03;;
17414;SDS011;8825;48.086;16.426;2023-02-28T08:30:30;13.20;;;11.90;;
17414;SDS011;8825;48.086;16.426;2023-02-28T08:32:58;13.18;;;11.83;;
17414;SDS011;8825;48.086;16.426;2023-02-28T08:35:27;13.85;;;11.40;;
17414;SDS011;8825;48.086;16.426;2023-02-28T08:37:55;13.45;;;12.05;;
17414;SDS011;8825;48.086;16.426;2023-02-28T08:40:22;15.30;;;12.55;;
17414;SDS011;8825;48.086;16.426;2023-02-28T08:42:50;15.78;;;12.23;;
17414;SDS011;8825;48.086;16.426;2023-02-28T08:45:17;13.22;;;11.85;;
17414;SDS011;8825;48.086;16.426;2023-02-28T08:47:45;14.47;;;12.75;;
17414;SDS011;8825;48.086;16.426;2023-02-28T08:50:12;13.55;;;11.97;;
17414;SDS011;8825;48.086;16.426;2023-02-28T08:52:42;13.90;;;12.50;;
17414;SDS011;8825;48.086;16.426;2023-02-28T08:55:10;13.58;;;12.07;;
17414;SDS011;8825;48.086;16.426;2023-02-28T08:57:37;14.75;;;13.10;;
17414;SDS011;8825;48.086;16.426;2023-02-28T09:00:05;15.53;;;12.85;;
17414;SDS011;8825;48.086;16.426;2023-02-28T09:02:33;14.58;;;13.05;;
17414;SDS011;8825;48.086;16.426;2023-02-28T09:05:01;14.68;;;12.68;;
17414;SDS011;8825;48.086;16.426;2023-02-28T09:07:29;15.28;;;12.82;;
17414;SDS011;8825;48.086;16.426;2023-02-28T09:09:56;18.00;;;13.75;;
17414;SDS011;8825;48.086;16.426;2023-02-28T09:12:25;18.77;;;13.58;;
17414;SDS011;8825;48.086;16.426;2023-02-28T09:14:53;17.02;;;13.83;;
17414;SDS011;8825;48.086;16.426;2023-02-28T09:17:21;16.37;;;13.08;;
17414;SDS011;8825;48.086;16.426;2023-02-28T09:19:48;14.70;;;13.20;;
17414;SDS011;8825;48.086;16.426;2023-02-28T09:22:16;13.98;;;12.58;;
17414;SDS011;8825;48.086;16.426;2023-02-28T09:24:43;13.95;;;12.50;;
17414;SDS011;8825;48.086;16.426;2023-02-28T09:27:11;14.93;;;11.40;;
17414;SDS011;8825;48.086;16.426;2023-02-28T09:29:38;13.80;;;12.18;;
17414;SDS011;8825;48.086;16.426;2023-02-28T09:32:06;15.57;;;12.47;;
17414;SDS011;8825;48.086;16.426;2023-02-28T09:34:33;13.63;;;11.93;;
17414;SDS011;8825;48.086;16.426;2023-02-28T09:37:02;14.17;;;12.20;;
17414;SDS011;8825;48.086;16.426;2023-02-28T09:39:30;12.00;;;10.80;;
17414;SDS011;8825;48.086;16.426;2023-02-28T09:41:57;13.30;;;11.87;;
17414;SDS011;8825;48.086;16.426;2023-02-28T09:44:29;12.90;;;11.47;;
17414;SDS011;8825;48.086;16.426;2023-02-28T09:47:47;13.97;;;12.33;;
17414;SDS011;8825;48.086;16.426;2023-02-28T09:49:41;14.27;;;12.60;;
17414;SDS011;8825;48.086;16.426;2023-02-28T09:52:17;13.20;;;11.90;;
17414;SDS011;8825;48.086;16.426;2023-02-28T09:54:42;13.13;;;11.73;;
17414;SDS011;8825;48.086;16.426;2023-02-28T10:00:05;13.43;;;11.30;;
17414;SDS011;8825;48.086;16.426;2023-02-28T10:05:39;12.27;;;10.90;;
17414;SDS011;8825;48.086;16.426;2023-02-28T10:08:13;12.37;;;11.07;;
17414;SDS011;8825;48.086;16.426;2023-02-28T10:10:50;12.67;;;11.27;;
17414;SDS011;8825;48.086;16.426;2023-02-28T10:13:43;13.77;;;11.50;;
17414;SDS011;8825;48.086;16.426;2023-02-28T10:16:36;12.47;;;10.33;;
17414;SDS011;8825;48.086;16.426;2023-02-28T10:19:18;14.53;;;11.40;;
17414;SDS011;8825;48.086;16.426;2023-02-28T10:22:05;11.73;;;10.53;;
17414;SDS011;8825;48.086;16.426;2023-02-28T10:24:46;15.50;;;14.00;;
17414;SDS011;8825;48.086;16.426;2023-02-28T10:27:18;11.77;;;10.60;;
17414;SDS011;8825;48.086;16.426;2023-02-28T10:29:54;13.57;;;10.37;;
17414;SDS011;8825;48.086;16.426;2023-02-28T10:35:06;11.93;;;10.73;;
17414;SDS011;8825;48.086;16.426;2023-02-28T10:37:37;11.23;;;10.13;;
17414;SDS011;8825;48.086;16.426;2023-02-28T10:40:06;11.53;;;10.43;;
17414;SDS011;8825;48.086;16.426;2023-02-28T10:42:36;11.40;;;10.23;;
17414;SDS011;8825;48.086;16.426;2023-02-28T10:45:11;11.83;;;10.27;;
17414;SDS011;8825;48.086;16.426;2023-02-28T10:47:51;12.03;;;10.27;;
17414;SDS011;8825;48.086;16.426;2023-02-28T10:50:27;11.97;;;10.87;;
17414;SDS011;8825;48.086;16.426;2023-02-28T10:56:02;12.83;;;11.53;;
17414;SDS011;8825;48.086;16.426;2023-02-28T10:58:42;11.67;;;10.47;;
17414;SDS011;8825;48.086;16.426;2023-02-28T11:01:34;13.67;;;12.03;;
17414;SDS011;8825;48.086;16.426;2023-02-28T11:03:50;12.93;;;11.13;;
17414;SDS011;8825;48.086;16.426;2023-02-28T11:06:22;11.70;;;10.53;;
17414;SDS011;8825;48.086;16.426;2023-02-28T11:08:53;12.33;;;11.03;;
17414;SDS011;8825;48.086;16.426;2023-02-28T11:11:22;12.90;;;11.60;;
17414;SDS011;8825;48.086;16.426;2023-02-28T11:13:55;11.97;;;10.67;;
17414;SDS011;8825;48.086;16.426;2023-02-28T11:16:35;13.27;;;11.97;;
17414;SDS011;8825;48.086;16.426;2023-02-28T11:19:04;11.83;;;10.60;;
17414;SDS011;8825;48.086;16.426;2023-02-28T11:21:36;12.60;;;11.30;;
17414;SDS011;8825;48.086;16.426;2023-02-28T11:24:19;11.57;;;10.37;;
17414;SDS011;8825;48.086;16.426;2023-02-28T11:26:58;11.97;;;10.60;;
17414;SDS011;8825;48.086;16.426;2023-02-28T11:29:27;12.53;;;11.20;;
17414;SDS011;8825;48.086;16.426;2023-02-28T11:32:18;12.30;;;11.03;;
17414;SDS011;8825;48.086;16.426;2023-02-28T11:35:12;11.87;;;10.57;;
17414;SDS011;8825;48.086;16.426;2023-02-28T11:37:34;12.40;;;10.80;;
17414;SDS011;8825;48.086;16.426;2023-02-28T11:40:05;11.47;;;10.30;;
17414;SDS011;8825;48.086;16.426;2023-02-28T11:42:45;11.77;;;10.57;;
17414;SDS011;8825;48.086;16.426;2023-02-28T11:48:17;12.30;;;10.80;;
17414;SDS011;8825;48.086;16.426;2023-02-28T11:50:59;11.37;;;10.27;;
17414;SDS011;8825;48.086;16.426;2023-02-28T11:53:46;13.17;;;11.37;;
17414;SDS011;8825;48.086;16.426;2023-02-28T12:02:05;12.40;;;11.17;;
17414;SDS011;8825;48.086;16.426;2023-02-28T12:07:55;10.93;;;9.80;;
17414;SDS011;8825;48.086;16.426;2023-02-28T12:10:25;10.77;;;9.67;;
17414;SDS011;8825;48.086;16.426;2023-02-28T12:13:00;10.20;;;9.10;;
17414;SDS011;8825;48.086;16.426;2023-02-28T12:15:36;10.60;;;9.50;;
17414;SDS011;8825;48.086;16.426;2023-02-28T12:23:47;9.67;;;8.47;;
17414;SDS011;8825;48.086;16.426;2023-02-28T12:26:32;9.80;;;8.80;;
17414;SDS011;8825;48.086;16.426;2023-02-28T12:29:17;11.17;;;7.77;;
17414;SDS011;8825;48.086;16.426;2023-02-28T12:32:06;9.03;;;7.80;;
17414;SDS011;8825;48.086;16.426;2023-02-28T12:37:21;8.93;;;8.03;;
17414;SDS011;8825;48.086;16.426;2023-02-28T12:39:45;9.27;;;8.07;;
17414;SDS011;8825;48.086;16.426;2023-02-28T12:44:59;8.97;;;8.00;;
17414;SDS011;8825;48.086;16.426;2023-02-28T12:47:33;8.17;;;7.33;;
17414;SDS011;8825;48.086;16.426;2023-02-28T12:50:04;9.43;;;8.00;;
17414;SDS011;8825;48.086;16.426;2023-02-28T12:55:56;8.07;;;7.27;;
17414;SDS011;8825;48.086;16.426;2023-02-28T12:57:48;7.20;;;6.50;;
17414;SDS011;8825;48.086;16.426;2023-02-28T13:00:17;7.80;;;7.10;;
17414;SDS011;8825;48.086;16.426;2023-02-28T13:08:53;8.67;;;7.70;;
17414;SDS011;8825;48.086;16.426;2023-02-28T13:11:41;9.80;;;7.47;;
17414;SDS011;8825;48.086;16.426;2023-02-28T13:19:42;7.63;;;6.83;;
17414;SDS011;8825;48.086;16.426;2023-02-28T13:24:54;7.93;;;7.17;;
17414;SDS011;8825;48.086;16.426;2023-02-28T13:27:39;7.90;;;6.90;;
17414;SDS011;8825;48.086;16.426;2023-02-28T13:33:20;10.57;;;9.13;;
17414;SDS011;8825;48.086;16.426;2023-02-28T13:35:48;10.40;;;8.23;;
17414;SDS011;8825;48.086;16.426;2023-02-28T13:38:38;9.00;;;7.40;;
17414;SDS011;8825;48.086;16.426;2023-02-28T13:44:05;7.47;;;6.77;;
17414;SDS011;8825;48.086;16.426;2023-02-28T13:52:06;9.23;;;7.70;;
17414;SDS011;8825;48.086;16.426;2023-02-28T13:54:40;8.77;;;7.83;;
17414;SDS011;8825;48.086;16.426;2023-02-28T13:59:56;8.30;;;7.37;;
17414;SDS011;8825;48.086;16.426;2023-02-28T14:05:15;9.20;;;7.77;;
17414;SDS011;8825;48.086;16.426;2023-02-28T14:07:48;9.43;;;8.43;;
17414;SDS011;8825;48.086;16.426;2023-02-28T14:12:55;9.00;;;7.77;;
17414;SDS011;8825;48.086;16.426;2023-02-28T14:15:30;8.33;;;7.53;;
17414;SDS011;8825;48.086;16.426;2023-02-28T14:17:59;9.27;;;7.50;;
17414;SDS011;8825;48.086;16.426;2023-02-28T14:20:29;10.13;;;7.67;;
17414;SDS011;8825;48.086;16.426;2023-02-28T14:26:49;9.10;;;7.60;;
17414;SDS011;8825;48.086;16.426;2023-02-28T14:28:53;7.70;;;6.90;;
17414;SDS011;8825;48.086;16.426;2023-02-28T14:36:48;8.63;;;7.67;;
17414;SDS011;8825;48.086;16.426;2023-02-28T14:39:20;9.80;;;8.03;;
17414;SDS011;8825;48.086;16.426;2023-02-28T14:41:51;8.97;;;7.80;;
17414;SDS011;8825;48.086;16.426;2023-02-28T14:44:23;9.63;;;8.63;;
17414;SDS011;8825;48.086;16.426;2023-02-28T14:46:53;9.10;;;7.53;;
17414;SDS011;8825;48.086;16.426;2023-02-28T14:49:26;9.47;;;7.50;;
17414;SDS011;8825;48.086;16.426;2023-02-28T14:54:45;9.10;;;8.20;;
17414;SDS011;8825;48.086;16.426;2023-02-28T14:57:25;9.20;;;8.30;;
17414;SDS011;8825;48.086;16.426;2023-02-28T15:00:06;9.70;;;8.53;;
17414;SDS011;8825;48.086;16.426;2023-02-28T15:02:40;8.90;;;8.00;;
17414;SDS011;8825;48.086;16.426;2023-02-28T15:07:45;8.60;;;7.80;;
17414;SDS011;8825;48.086;16.426;2023-02-28T15:10:21;10.27;;;8.80;;
17414;SDS011;8825;48.086;16.426;2023-02-28T15:12:54;9.30;;;8.33;;
17414;SDS011;8825;48.086;16.426;2023-02-28T15:15:32;8.13;;;7.33;;
17414;SDS011;8825;48.086;16.426;2023-02-28T15:17:57;8.10;;;7.30;;
17414;SDS011;8825;48.086;16.426;2023-02-28T15:20:28;8.20;;;7.43;;
17414;SDS011;8825;48.086;16.426;2023-02-28T15:22:55;8.20;;;7.40;;
17414;SDS011;8825;48.086;16.426;2023-02-28T15:25:24;9.87;;;8.27;;
17414;SDS011;8825;48.086;16.426;2023-02-28T15:27:53;9.57;;;8.40;;
17414;SDS011;8825;48.086;16.426;2023-02-28T15:30:25;9.37;;;8.37;;
17414;SDS011;8825;48.086;16.426;2023-02-28T15:33:07;8.20;;;7.40;;
17414;SDS011;8825;48.086;16.426;2023-02-28T15:35:38;7.67;;;6.87;;
17414;SDS011;8825;48.086;16.426;2023-02-28T15:38:21;8.47;;;7.67;;
17414;SDS011;8825;48.086;16.426;2023-02-28T15:46:43;7.87;;;7.17;;
17414;SDS011;8825;48.086;16.426;2023-02-28T15:49:28;7.60;;;6.90;;
17414;SDS011;8825;48.086;16.426;2023-02-28T15:51:58;8.53;;;7.73;;
17414;SDS011;8825;48.086;16.426;2023-02-28T15:54:28;10.10;;;9.10;;
17414;SDS011;8825;48.086;16.426;2023-02-28T15:56:57;9.13;;;8.33;;
17414;SDS011;8825;48.086;16.426;2023-02-28T15:59:32;10.17;;;8.80;;
17414;SDS011;8825;48.086;16.426;2023-02-28T16:04:59;9.93;;;8.90;;
17414;SDS011;8825;48.086;16.426;2023-02-28T16:07:31;9.20;;;8.30;;
17414;SDS011;8825;48.086;16.426;2023-02-28T16:10:00;9.60;;;8.63;;
17414;SDS011;8825;48.086;16.426;2023-02-28T16:12:29;10.67;;;9.27;;
17414;SDS011;8825;48.086;16.426;2023-02-28T16:15:00;11.03;;;9.93;;
17414;SDS011;8825;48.086;16.426;2023-02-28T16:17:29;12.73;;;11.43;;
17414;SDS011;8825;48.086;16.426;2023-02-28T16:19:59;14.20;;;11.20;;
17414;SDS011;8825;48.086;16.426;2023-02-28T16:22:26;14.37;;;12.40;;
17414;SDS011;8825;48.086;16.426;2023-02-28T16:24:54;18.83;;;15.13;;
17414;SDS011;8825;48.086;16.426;2023-02-28T16:27:27;16.03;;;13.77;;
17414;SDS011;8825;48.086;16.426;2023-02-28T16:29:58;14.77;;;12.47;;
17414;SDS011;8825;48.086;16.426;2023-02-28T16:32:26;12.80;;;11.40;;
17414;SDS011;8825;48.086;16.426;2023-02-28T16:34:55;12.90;;;11.27;;
17414;SDS011;8825;48.086;16.426;2023-02-28T16:37:22;11.80;;;10.30;;
17414;SDS011;8825;48.086;16.426;2023-02-28T16:39:49;11.43;;;9.87;;
17414;SDS011;8825;48.086;16.426;2023-02-28T16:42:24;11.30;;;10.13;;
17414;SDS011;8825;48.086;16.426;2023-02-28T16:44:54;12.73;;;10.73;;
17414;SDS011;8825;48.086;16.426;2023-02-28T16:47:23;12.27;;;11.00;;
17414;SDS011;8825;48.086;16.426;2023-02-28T16:49:52;12.47;;;11.13;;
17414;SDS011;8825;48.086;16.426;2023-02-28T16:52:20;12.57;;;10.70;;
17414;SDS011;8825;48.086;16.426;2023-02-28T16:54:47;12.07;;;10.83;;
17414;SDS011;8825;48.086;16.426;2023-02-28T16:57:17;12.20;;;11.00;;